Bountiful, Colorado
Current Conditions -  °F | °C
As of 5:52 AM on Friday 19 Dec 2014 (Local Time) from KALS Reporting Station
Moderate Fog Moderate Fog  
Wind Chill:   Ceiling: 100
Heat Index:   Visibility: 0.25mi
Dew Point:   Wind: 3mph
Humidity: 91%   Direction: 40°NE
Pressure: 30.14"   Gusts: NA
Location:  37.3121°N, 106.036°W
Report Text: KALS 191252Z AUTO 04003KT 1/4SM FZFG VV001 M17/M18 A3014 RMK AO2 SLP277 T11671178
Loading
Personal Weather Stations






























Interactive Weather Map New forecast layout! Learn more

10-Day Weather Forecast

Advertisements
Track Severe Weather on mobile